TimeCST,TemperatureF,Dew PointF,Humidity,Sea Level PressureIn,VisibilityMPH,Wind Direction,Wind SpeedMPH,Gust SpeedMPH,PrecipitationIn,Events,Conditions,WindDirDegrees,DateUTC
12:53 AM,-7.1,-14.1,72,30.38,10.0,NW,12.7,-,N/A,,Clear,320,2013-01-22 06:53:00
1:53 AM,-8.0,-16.1,68,30.41,10.0,NW,9.2,-,N/A,,Clear,320,2013-01-22 07:53:00
2:53 AM,-8.0,-16.1,68,30.42,10.0,NW,8.1,-,N/A,,Clear,310,2013-01-22 08:53:00
3:53 AM,-9.0,-16.1,71,30.42,10.0,NNW,5.8,-,N/A,,Clear,330,2013-01-22 09:53:00
4:53 AM,-9.0,-17.0,68,30.43,10.0,NW,9.2,-,N/A,,Clear,310,2013-01-22 10:53:00
5:53 AM,-9.9,-17.0,71,30.43,10.0,NW,6.9,-,N/A,,Clear,320,2013-01-22 11:53:00
6:53 AM,-11.0,-17.0,75,30.45,10.0,NW,5.8,-,N/A,,Clear,320,2013-01-22 12:53:00
7:53 AM,-11.9,-18.0,74,30.45,10.0,WNW,3.5,-,N/A,,Partly Cloudy,290,2013-01-22 13:53:00
8:53 AM,-9.0,-17.0,68,30.46,10.0,Calm,Calm,-,N/A,,Partly Cloudy,0,2013-01-22 14:53:00
9:53 AM,-7.1,-17.0,62,30.47,10.0,Calm,Calm,-,N/A,,Partly Cloudy,0,2013-01-22 15:53:00
10:53 AM,-6.0,-17.0,59,30.48,10.0,WNW,5.8,-,N/A,,Scattered Clouds,290,2013-01-22 16:53:00
11:53 AM,-4.0,-15.0,59,30.45,10.0,West,3.5,-,N/A,,Mostly Cloudy,260,2013-01-22 17:53:00
12:53 PM,-2.0,-14.1,57,30.44,10.0,West,6.9,-,N/A,,Mostly Cloudy,260,2013-01-22 18:53:00
1:53 PM,-0.0,-13.0,54,30.42,10.0,WSW,6.9,-,N/A,,Mostly Cloudy,250,2013-01-22 19:53:00
2:53 PM,1.0,-11.9,55,30.41,10.0,West,4.6,-,N/A,,Mostly Cloudy,260,2013-01-22 20:53:00
3:53 PM,1.0,-11.0,57,30.40,10.0,WSW,8.1,-,N/A,,Overcast,240,2013-01-22 21:53:00
4:53 PM,1.0,-9.9,60,30.40,10.0,WSW,5.8,-,N/A,,Overcast,250,2013-01-22 22:53:00
5:53 PM,1.0,-9.0,63,30.39,10.0,WSW,5.8,-,N/A,,Overcast,240,2013-01-22 23:53:00
6:53 PM,1.0,-9.0,63,30.37,10.0,WSW,5.8,-,N/A,,Overcast,250,2013-01-23 00:53:00
7:53 PM,1.9,-7.1,66,30.36,10.0,SW,4.6,-,N/A,,Overcast,230,2013-01-23 01:53:00
8:53 PM,3.0,-6.0,66,30.35,10.0,WSW,5.8,-,N/A,,Overcast,240,2013-01-23 02:53:00
9:53 PM,3.0,-5.1,69,30.34,10.0,SW,8.1,-,N/A,,Overcast,230,2013-01-23 03:53:00
10:53 PM,3.9,-5.1,66,30.32,10.0,Calm,Calm,-,N/A,,Overcast,0,2013-01-23 04:53:00
11:53 PM,5.0,-4.0,66,30.31,10.0,SW,4.6,-,N/A,,Overcast,230,2013-01-23 05:53:00